createdAt,value
2023-03-12T00:01:20.567Z,10.55
2023-03-12T00:03:50.029Z,13.35
2023-03-12T00:06:22.675Z,10.98
2023-03-12T00:08:51.475Z,14.55
2023-03-12T00:11:22.294Z,9.60
2023-03-12T00:13:54.548Z,10.27
2023-03-12T00:16:24.009Z,8.98
2023-03-12T00:18:54.641Z,8.55
2023-03-12T00:21:24.470Z,13.00
2023-03-12T00:23:53.888Z,10.30
2023-03-12T00:26:23.374Z,15.23
2023-03-12T00:28:53.867Z,8.75
2023-03-12T00:31:27.161Z,15.52
2023-03-12T00:33:56.451Z,10.70
2023-03-12T00:36:28.283Z,10.38
2023-03-12T00:38:57.983Z,10.25
2023-03-12T00:41:27.616Z,11.00
2023-03-12T00:43:58.376Z,13.80
2023-03-12T00:46:27.262Z,8.63
2023-03-12T00:48:56.106Z,10.77
2023-03-12T00:51:24.445Z,9.38
2023-03-12T00:53:53.138Z,10.75
2023-03-12T00:56:21.382Z,11.82
2023-03-12T00:58:49.685Z,10.55
2023-03-12T01:01:20.386Z,8.80
2023-03-12T01:03:49.013Z,7.38
2023-03-12T01:06:17.362Z,11.90
2023-03-12T01:08:45.817Z,11.85
2023-03-12T01:11:15.358Z,8.70
2023-03-12T01:13:44.009Z,11.05
2023-03-12T01:16:12.636Z,11.65
2023-03-12T01:18:43.118Z,14.32
2023-03-12T01:21:11.754Z,12.15
2023-03-12T01:23:40.490Z,9.73
2023-03-12T01:26:08.972Z,11.43
2023-03-12T01:28:37.204Z,9.48
2023-03-12T01:31:09.311Z,10.77
2023-03-12T01:33:37.582Z,13.20
2023-03-12T01:36:17.117Z,11.18
2023-03-12T01:38:45.711Z,11.63
2023-03-12T01:41:14.210Z,11.05
2023-03-12T01:43:43.128Z,11.30
2023-03-12T01:46:30.248Z,13.00
2023-03-12T01:49:09.830Z,12.85
2023-03-12T01:51:43.083Z,12.27
2023-03-12T01:54:16.047Z,10.55
2023-03-12T01:56:44.806Z,11.40
2023-03-12T01:59:19.007Z,11.55
2023-03-12T02:01:48.815Z,10.35
2023-03-12T02:04:19.557Z,10.43
2023-03-12T02:06:55.812Z,10.38
2023-03-12T02:09:24.144Z,10.95
2023-03-12T02:11:52.411Z,10.52
2023-03-12T02:14:20.814Z,12.35
2023-03-12T02:16:49.156Z,11.68
2023-03-12T02:19:25.869Z,8.10
2023-03-12T02:21:55.556Z,9.80
2023-03-12T02:24:30.325Z,8.27
2023-03-12T02:27:00.674Z,7.57
2023-03-12T02:29:31.946Z,7.78
2023-03-12T02:32:02.993Z,10.65
2023-03-12T02:34:31.550Z,10.40
2023-03-12T02:36:59.847Z,10.85
2023-03-12T02:39:28.628Z,10.88
2023-03-12T02:42:00.411Z,8.73
2023-03-12T02:44:31.568Z,10.35
2023-03-12T02:47:02.799Z,15.18
2023-03-12T02:49:33.940Z,8.82
2023-03-12T02:52:03.884Z,10.18
2023-03-12T02:54:32.725Z,10.38
2023-03-12T02:57:02.832Z,10.70
2023-03-12T02:59:31.167Z,9.18
2023-03-12T03:02:02.141Z,11.85
2023-03-12T03:04:34.802Z,7.82
2023-03-12T03:07:03.361Z,8.07
2023-03-12T03:09:31.610Z,11.13
2023-03-12T03:12:01.250Z,10.07
2023-03-12T03:14:29.548Z,10.27
2023-03-12T03:16:57.788Z,10.38
2023-03-12T03:19:26.145Z,13.85
2023-03-12T03:21:54.405Z,12.32
2023-03-12T03:24:22.733Z,10.43
2023-03-12T03:26:51.073Z,12.75
2023-03-12T03:29:20.737Z,11.52
2023-03-12T03:31:48.969Z,15.38
2023-03-12T03:34:19.929Z,11.60
2023-03-12T03:36:48.250Z,9.10
2023-03-12T03:39:17.196Z,10.82
2023-03-12T03:41:47.227Z,12.65
2023-03-12T03:44:16.256Z,13.70
2023-03-12T03:46:46.941Z,10.93
2023-03-12T03:49:15.615Z,10.52
2023-03-12T03:51:43.884Z,11.88
2023-03-12T03:54:13.170Z,8.88
2023-03-12T03:56:42.620Z,11.13
2023-03-12T03:59:11.200Z,8.27
2023-03-12T04:01:39.503Z,9.25
2023-03-12T04:04:09.079Z,11.10
2023-03-12T04:06:37.689Z,10.10
2023-03-12T04:09:06.327Z,10.35
2023-03-12T04:11:34.612Z,10.95
2023-03-12T04:14:02.843Z,10.98
2023-03-12T04:16:31.043Z,10.02
2023-03-12T04:18:59.302Z,14.10
2023-03-12T04:21:28.983Z,10.73
2023-03-12T04:23:57.358Z,11.05
2023-03-12T04:26:26.059Z,11.68
2023-03-12T04:28:54.322Z,16.55
2023-03-12T04:31:22.583Z,13.40
2023-03-12T04:33:50.838Z,15.85
2023-03-12T04:36:19.094Z,12.50
2023-03-12T04:38:48.682Z,15.40
2023-03-12T04:41:18.085Z,14.88
2023-03-12T04:43:46.319Z,13.93
2023-03-12T04:46:14.679Z,15.63
2023-03-12T04:48:43.008Z,12.57
2023-03-12T04:51:11.469Z,15.60
2023-03-12T04:53:40.517Z,18.48
2023-03-12T04:56:10.525Z,13.45
2023-03-12T04:58:38.888Z,15.57
2023-03-12T05:01:07.165Z,14.43
2023-03-12T05:03:36.281Z,17.35
2023-03-12T05:06:05.046Z,14.63
2023-03-12T05:08:33.300Z,17.48
2023-03-12T05:11:01.606Z,15.80
2023-03-12T05:13:31.277Z,15.52
2023-03-12T05:15:59.799Z,13.32
2023-03-12T05:18:28.135Z,15.98
2023-03-12T05:21:01.537Z,15.98
2023-03-12T05:23:29.924Z,15.77
2023-03-12T05:25:59.591Z,15.35
2023-03-12T05:28:28.752Z,17.45
2023-03-12T05:31:00.227Z,17.35
2023-03-12T05:33:29.808Z,17.08
2023-03-12T05:35:58.230Z,15.07
2023-03-12T05:38:26.648Z,21.75
2023-03-12T05:40:55.505Z,22.80
2023-03-12T05:43:24.541Z,22.65
2023-03-12T05:45:53.112Z,19.30
2023-03-12T05:48:22.812Z,22.67
2023-03-12T05:50:51.206Z,20.08
2023-03-12T05:53:19.552Z,18.23
2023-03-12T05:55:47.828Z,21.80
2023-03-12T05:58:16.657Z,22.17
2023-03-12T06:00:45.360Z,18.70
2023-03-12T06:03:14.541Z,19.75
2023-03-12T06:05:48.019Z,24.48
2023-03-12T06:08:16.696Z,20.15
2023-03-12T06:10:44.941Z,20.02
2023-03-12T06:13:13.294Z,25.25
2023-03-12T06:15:41.591Z,22.85
2023-03-12T06:18:09.849Z,18.80
2023-03-12T06:20:38.146Z,21.00
2023-03-12T06:23:07.932Z,25.83
2023-03-12T06:25:36.233Z,20.15
2023-03-12T06:28:04.917Z,23.65
2023-03-12T06:30:33.169Z,23.52
2023-03-12T06:33:01.398Z,23.38
2023-03-12T06:35:45.713Z,22.08
2023-03-12T06:38:17.490Z,21.35
2023-03-12T06:40:45.716Z,23.90
2023-03-12T06:43:13.990Z,22.60
2023-03-12T06:45:42.219Z,22.75
2023-03-12T06:48:10.421Z,19.77
2023-03-12T06:50:38.646Z,18.75
2023-03-12T06:53:06.926Z,18.52
2023-03-12T06:55:36.583Z,19.60
2023-03-12T06:58:05.221Z,22.15
2023-03-12T07:00:34.889Z,18.58
2023-03-12T07:03:03.542Z,25.63
2023-03-12T07:05:32.313Z,23.00
2023-03-12T07:08:00.781Z,20.45
2023-03-12T07:10:29.643Z,24.25
2023-03-12T07:12:59.523Z,18.98
2023-03-12T07:15:27.999Z,22.88
2023-03-12T07:17:56.870Z,24.65
2023-03-12T07:20:27.009Z,25.13
2023-03-12T07:22:55.261Z,24.10
2023-03-12T07:25:24.055Z,26.95
2023-03-12T07:27:52.428Z,27.13
2023-03-12T07:30:22.418Z,27.67
2023-03-12T07:32:51.372Z,35.22
2023-03-12T07:35:20.039Z,37.10
2023-03-12T07:37:48.448Z,35.22
2023-03-12T07:40:17.075Z,34.88
2023-03-12T07:42:45.436Z,35.47
2023-03-12T07:45:13.983Z,41.97
2023-03-12T07:47:43.829Z,43.88
2023-03-12T07:50:13.635Z,34.63
2023-03-12T07:52:42.196Z,43.97
2023-03-12T07:55:11.951Z,40.17
2023-03-12T07:57:40.450Z,49.33
2023-03-12T08:00:12.218Z,45.58
2023-03-12T08:02:41.291Z,49.30
2023-03-12T08:05:11.745Z,49.28
2023-03-12T08:07:40.067Z,54.67
2023-03-12T08:10:10.652Z,54.75
2023-03-12T08:12:39.233Z,65.13
2023-03-12T08:15:09.572Z,59.75
2023-03-12T08:17:37.813Z,65.03
2023-03-12T08:20:09.780Z,65.75
2023-03-12T08:22:40.898Z,74.43
2023-03-12T08:25:10.619Z,71.18
2023-03-12T08:27:39.006Z,76.00
2023-03-12T08:30:12.634Z,75.75
2023-03-12T08:32:54.416Z,87.70
2023-03-12T08:35:27.675Z,81.00
2023-03-12T08:37:58.217Z,82.30
2023-03-12T08:40:28.360Z,78.95
2023-03-12T08:42:56.918Z,88.57
2023-03-12T08:45:28.910Z,89.57
2023-03-12T08:48:07.386Z,82.82
2023-03-12T08:50:40.445Z,87.30
2023-03-12T08:53:11.154Z,83.65
2023-03-12T08:55:40.160Z,87.50
2023-03-12T08:58:09.092Z,79.30
2023-03-12T09:00:44.366Z,83.82
2023-03-12T09:03:15.094Z,84.88
2023-03-12T09:05:49.795Z,79.00
2023-03-12T09:08:27.188Z,87.03
2023-03-12T09:10:59.719Z,79.72
2023-03-12T09:13:58.826Z,83.82
2023-03-12T09:16:35.094Z,78.13
2023-03-12T09:19:08.643Z,81.88
2023-03-12T09:21:38.127Z,76.60
2023-03-12T09:24:15.979Z,79.30
2023-03-12T09:26:44.649Z,75.82
2023-03-12T09:29:13.453Z,63.58
2023-03-12T09:31:44.840Z,73.13
2023-03-12T09:34:13.264Z,68.90
2023-03-12T09:36:42.668Z,67.70
2023-03-12T09:39:12.389Z,65.93
2023-03-12T09:41:43.802Z,63.47
2023-03-12T09:44:20.343Z,64.72
2023-03-12T09:46:53.314Z,60.03
2023-03-12T09:49:33.252Z,59.22
2023-03-12T09:52:05.513Z,54.15
2023-03-12T09:54:45.291Z,49.22
2023-03-12T09:57:23.506Z,62.15
2023-03-12T09:59:52.315Z,55.25
2023-03-12T10:02:53.043Z,68.78
2023-03-12T10:05:28.044Z,53.00
2023-03-12T10:08:17.234Z,54.80
2023-03-12T10:10:57.382Z,67.43
2023-03-12T10:13:45.758Z,57.17
2023-03-12T10:16:32.077Z,56.45
2023-03-12T10:19:31.739Z,55.47
2023-03-12T10:22:10.621Z,69.80
2023-03-12T10:24:52.584Z,58.92
2023-03-12T10:27:27.145Z,64.80
2023-03-12T10:29:56.689Z,74.60
2023-03-12T10:32:31.468Z,51.75
2023-03-12T10:35:05.542Z,61.45
2023-03-12T10:37:42.039Z,62.15
2023-03-12T10:40:17.177Z,56.78
2023-03-12T10:42:47.302Z,47.22
2023-03-12T10:45:30.783Z,52.95
2023-03-12T10:48:07.206Z,58.85
2023-03-12T10:50:37.882Z,56.88
2023-03-12T10:53:23.826Z,56.63
2023-03-12T10:56:05.575Z,57.38
2023-03-12T10:58:38.463Z,54.33
2023-03-12T11:01:22.622Z,50.65
2023-03-12T11:03:51.994Z,48.55
2023-03-12T11:06:27.717Z,61.20
2023-03-12T11:09:17.435Z,62.58
2023-03-12T11:11:52.111Z,56.47
2023-03-12T11:14:24.570Z,46.67
2023-03-12T11:16:54.684Z,46.38
2023-03-12T11:19:32.832Z,52.50
2023-03-12T11:22:03.883Z,55.03
2023-03-12T11:24:32.811Z,46.38
2023-03-12T11:27:06.953Z,50.88
2023-03-12T11:29:40.543Z,42.80
2023-03-12T11:32:17.007Z,47.78
2023-03-12T11:34:49.557Z,51.72
2023-03-12T11:37:28.724Z,54.78
2023-03-12T11:40:14.280Z,49.88
2023-03-12T11:43:08.836Z,53.85
2023-03-12T11:45:50.937Z,50.38
2023-03-12T11:48:26.747Z,49.58
2023-03-12T11:51:15.180Z,48.72
2023-03-12T11:54:03.106Z,55.70
2023-03-12T11:56:35.778Z,49.95
2023-03-12T11:59:24.399Z,50.10
2023-03-12T12:02:13.198Z,51.85
2023-03-12T12:05:09.755Z,49.00
2023-03-12T12:07:55.602Z,46.20
2023-03-12T12:10:34.906Z,52.03
2023-03-12T12:13:12.566Z,41.55
2023-03-12T12:15:49.054Z,49.72
2023-03-12T12:18:48.025Z,52.75
2023-03-12T12:21:37.137Z,43.72
2023-03-12T12:24:20.234Z,44.28
2023-03-12T12:26:57.952Z,44.85
2023-03-12T12:29:40.191Z,43.60
2023-03-12T12:32:19.146Z,41.72
2023-03-12T12:35:08.711Z,48.80
2023-03-12T12:37:50.165Z,41.38
2023-03-12T12:40:25.491Z,49.42
2023-03-12T12:43:03.001Z,40.38
2023-03-12T12:45:31.723Z,38.72
2023-03-12T12:48:05.203Z,42.92
2023-03-12T12:50:39.918Z,32.75
2023-03-12T12:53:22.492Z,38.30
2023-03-12T12:56:01.768Z,39.83
2023-03-12T12:59:01.717Z,38.92
2023-03-12T13:01:31.476Z,38.92
2023-03-12T13:04:08.176Z,41.47
2023-03-12T13:06:58.505Z,36.17
2023-03-12T13:09:41.923Z,44.05
2023-03-12T13:12:19.197Z,34.75
2023-03-12T13:14:48.751Z,37.47
2023-03-12T13:18:02.885Z,36.97
2023-03-12T13:20:38.671Z,42.67
2023-03-12T13:23:33.922Z,41.47
2023-03-12T13:26:09.285Z,37.05
2023-03-12T13:28:42.063Z,43.47
2023-03-12T13:31:39.842Z,37.42
2023-03-12T13:34:45.642Z,38.05
2023-03-12T13:37:49.891Z,38.55
2023-03-12T13:43:18.664Z,35.75
2023-03-12T13:46:01.352Z,42.00
2023-03-12T13:48:29.930Z,40.05
2023-03-12T13:51:02.766Z,38.40
2023-03-12T13:53:40.305Z,43.20
2023-03-12T13:56:13.272Z,46.15
2023-03-12T13:58:50.918Z,39.22
2023-03-12T14:01:21.940Z,40.83
2023-03-12T14:03:54.793Z,34.80
2023-03-12T14:06:25.877Z,42.80
2023-03-12T14:09:09.175Z,33.95
2023-03-12T14:11:52.471Z,41.75
2023-03-12T14:14:49.060Z,39.90
2023-03-12T14:17:28.557Z,35.25
2023-03-12T14:20:02.616Z,37.55
2023-03-12T14:22:35.545Z,32.83
2023-03-12T14:25:14.383Z,32.25
2023-03-12T14:27:47.377Z,36.72
2023-03-12T14:30:25.148Z,37.92
2023-03-12T14:33:01.270Z,33.80
2023-03-12T14:35:36.214Z,36.17
2023-03-12T14:38:21.744Z,40.30
2023-03-12T14:40:56.541Z,33.60
2023-03-12T14:43:28.463Z,30.52
2023-03-12T14:46:01.143Z,38.30
2023-03-12T14:48:50.350Z,37.08
2023-03-12T14:51:24.716Z,33.78
2023-03-12T14:53:58.994Z,43.92
2023-03-12T14:56:36.214Z,39.20
2023-03-12T14:59:27.823Z,37.50
2023-03-12T15:02:05.447Z,37.28
2023-03-12T15:04:36.157Z,45.33
2023-03-12T15:07:10.898Z,43.85
2023-03-12T15:09:43.273Z,36.70
2023-03-12T15:12:22.424Z,40.67
2023-03-12T15:14:55.752Z,37.75
2023-03-12T15:17:27.876Z,41.53
2023-03-12T15:19:57.348Z,41.08
2023-03-12T15:22:29.371Z,49.55
2023-03-12T15:25:05.367Z,39.88
2023-03-12T15:27:35.817Z,46.00
2023-03-12T15:30:25.637Z,45.92
2023-03-12T15:33:14.658Z,30.45
2023-03-12T15:36:00.312Z,41.97
2023-03-12T15:38:31.548Z,43.72
2023-03-12T15:41:08.067Z,42.63
2023-03-12T15:43:37.950Z,43.55
2023-03-12T15:46:13.844Z,38.05
2023-03-12T15:48:51.070Z,37.58
2023-03-12T15:51:33.308Z,40.15
2023-03-12T15:54:07.918Z,42.45
2023-03-12T15:56:37.251Z,44.40
2023-03-12T15:59:24.812Z,37.03
2023-03-12T16:01:55.358Z,37.17
2023-03-12T16:04:25.934Z,43.53
2023-03-12T16:06:54.371Z,45.63
2023-03-12T16:09:26.562Z,42.03
2023-03-12T16:11:56.779Z,40.92
2023-03-12T16:14:32.238Z,37.08
2023-03-12T16:17:00.963Z,46.85
2023-03-12T16:19:34.327Z,36.97
2023-03-12T16:22:09.499Z,40.50
2023-03-12T16:24:37.769Z,48.70
2023-03-12T16:27:07.287Z,40.25
2023-03-12T16:30:12.440Z,47.80
2023-03-12T16:32:41.003Z,50.67
2023-03-12T16:35:15.880Z,47.63
2023-03-12T16:37:44.901Z,46.90
2023-03-12T16:40:21.211Z,49.78
2023-03-12T16:43:02.765Z,46.75
2023-03-12T16:45:33.550Z,39.03
2023-03-12T16:48:04.868Z,55.58
2023-03-12T16:50:34.723Z,43.10
2023-03-12T16:53:05.433Z,43.60
2023-03-12T16:55:46.801Z,48.17
2023-03-12T16:58:18.177Z,42.00
2023-03-12T17:00:47.558Z,50.28
2023-03-12T17:03:23.513Z,50.03
2023-03-12T17:05:53.668Z,37.30
2023-03-12T17:08:22.127Z,39.65
2023-03-12T17:10:50.492Z,36.88
2023-03-12T17:13:25.143Z,45.63
2023-03-12T17:15:54.586Z,40.78
2023-03-12T17:18:23.448Z,34.75
2023-03-12T17:20:53.187Z,32.97
2023-03-12T17:23:22.726Z,31.92
2023-03-12T17:25:51.345Z,34.38
2023-03-12T17:28:19.744Z,31.30
2023-03-12T17:30:58.242Z,27.00
2023-03-12T17:33:28.371Z,30.60
2023-03-12T17:36:05.107Z,24.73
2023-03-12T17:38:34.259Z,27.83
2023-03-12T17:41:13.838Z,21.17
2023-03-12T17:43:52.004Z,28.98
2023-03-12T17:46:20.530Z,23.58
2023-03-12T17:48:49.036Z,17.15
2023-03-12T17:51:21.034Z,24.85
2023-03-12T17:53:51.076Z,19.77
2023-03-12T17:56:19.594Z,14.00
2023-03-12T17:58:48.808Z,14.55
2023-03-12T18:01:23.207Z,17.27
2023-03-12T18:03:51.921Z,16.15
2023-03-12T18:06:30.174Z,14.25
2023-03-12T18:08:58.483Z,19.42
2023-03-12T18:11:26.950Z,13.93
2023-03-12T18:13:55.223Z,17.50
2023-03-12T18:16:23.864Z,16.20
2023-03-12T18:18:53.175Z,19.25
2023-03-12T18:21:21.657Z,18.35
2023-03-12T18:23:51.379Z,23.30
2023-03-12T18:26:19.799Z,20.73
2023-03-12T18:28:48.086Z,21.02
2023-03-12T18:31:18.952Z,21.83
2023-03-12T18:33:47.793Z,16.55
2023-03-12T18:36:19.274Z,18.63
2023-03-12T18:38:48.203Z,15.60
2023-03-12T18:41:18.321Z,25.73
2023-03-12T18:43:46.671Z,20.27
2023-03-12T18:46:16.994Z,18.05
2023-03-12T18:48:45.634Z,17.73
2023-03-12T18:51:18.402Z,20.30
2023-03-12T18:53:46.993Z,20.92
2023-03-12T18:56:15.818Z,26.95
2023-03-12T18:58:47.744Z,23.25
2023-03-12T19:01:18.427Z,21.35
2023-03-12T19:03:47.030Z,23.45
2023-03-12T19:06:17.747Z,26.33
2023-03-12T19:08:46.043Z,25.50
2023-03-12T19:11:17.308Z,27.15
2023-03-12T19:13:49.902Z,27.67
2023-03-12T19:16:22.021Z,23.23
2023-03-12T19:18:51.505Z,32.20
2023-03-12T19:21:20.141Z,26.27
2023-03-12T19:23:48.987Z,29.52
2023-03-12T19:26:20.201Z,24.63
2023-03-12T19:28:49.898Z,23.40
2023-03-12T19:31:21.829Z,30.88
2023-03-12T19:33:50.146Z,28.80
2023-03-12T19:36:21.235Z,29.58
2023-03-12T19:38:52.675Z,32.47
2023-03-12T19:41:21.142Z,34.30
2023-03-12T19:43:51.196Z,24.65
2023-03-12T19:46:19.514Z,24.42
2023-03-12T19:48:48.017Z,29.55
2023-03-12T19:51:18.157Z,30.30
2023-03-12T19:53:49.469Z,33.50
2023-03-12T19:56:21.100Z,34.55
2023-03-12T19:58:52.100Z,33.10
2023-03-12T20:01:21.324Z,33.53
2023-03-12T20:03:49.604Z,30.42
2023-03-12T20:06:18.358Z,22.50
2023-03-12T20:08:49.146Z,22.67
2023-03-12T20:11:20.124Z,26.70
2023-03-12T20:13:48.478Z,31.15
2023-03-12T20:16:20.076Z,26.25
2023-03-12T20:18:48.413Z,23.92
2023-03-12T20:21:16.945Z,27.27
2023-03-12T20:23:45.442Z,26.98
2023-03-12T20:26:14.753Z,23.20
2023-03-12T20:28:43.536Z,28.90
2023-03-12T20:31:14.123Z,27.52
2023-03-12T20:33:46.862Z,31.52
2023-03-12T20:36:16.067Z,28.17
2023-03-12T20:38:44.652Z,28.20
2023-03-12T20:41:14.493Z,31.45
2023-03-12T20:44:17.162Z,29.50
2023-03-12T20:46:45.483Z,30.33
2023-03-12T20:49:15.339Z,35.60
2023-03-12T20:51:44.719Z,32.65
2023-03-12T20:54:13.609Z,34.17
2023-03-12T20:56:43.701Z,30.98
2023-03-12T20:59:12.063Z,35.53
2023-03-12T21:01:40.862Z,38.75
2023-03-12T21:04:11.957Z,30.05
2023-03-12T21:06:41.810Z,35.33
2023-03-12T21:09:10.108Z,31.67
2023-03-12T21:11:39.829Z,34.28
2023-03-12T21:14:08.138Z,35.85
2023-03-12T21:16:39.128Z,37.33
2023-03-12T21:19:07.763Z,35.78
2023-03-12T21:21:38.613Z,41.28
2023-03-12T21:24:08.867Z,38.90
2023-03-12T21:26:37.094Z,44.25
2023-03-12T21:29:05.847Z,48.75
2023-03-12T21:31:34.098Z,34.95
2023-03-12T21:34:02.572Z,44.83
2023-03-12T21:36:30.886Z,33.80
2023-03-12T21:39:01.880Z,38.58
2023-03-12T21:41:31.766Z,37.40
2023-03-12T21:44:02.793Z,34.95
2023-03-12T21:46:31.368Z,36.65
2023-03-12T21:49:00.667Z,40.97
2023-03-12T21:51:29.127Z,31.83
2023-03-12T21:53:59.020Z,42.53
2023-03-12T21:56:28.308Z,33.47
2023-03-12T21:58:59.023Z,41.03
2023-03-12T22:01:27.752Z,48.53
2023-03-12T22:03:56.308Z,36.03
2023-03-12T22:06:24.553Z,36.55
2023-03-12T22:08:53.058Z,45.53
2023-03-12T22:11:21.314Z,37.65
2023-03-12T22:13:50.074Z,35.75
2023-03-12T22:16:22.082Z,37.67
2023-03-12T22:18:51.306Z,33.47
2023-03-12T22:21:22.361Z,44.28
2023-03-12T22:23:53.024Z,50.17
2023-03-12T22:26:22.990Z,30.00
2023-03-12T22:28:52.622Z,34.90
2023-03-12T22:31:24.427Z,32.17
2023-03-12T22:33:52.942Z,32.45
2023-03-12T22:36:22.430Z,31.25
2023-03-12T22:38:51.185Z,35.72
2023-03-12T22:41:22.499Z,37.63
2023-03-12T22:43:53.087Z,31.00
2023-03-12T22:46:25.179Z,36.80
2023-03-12T22:48:56.267Z,34.17
2023-03-12T22:51:24.708Z,36.67
2023-03-12T22:53:53.629Z,28.15
2023-03-12T22:56:22.612Z,28.75
2023-03-12T22:58:51.191Z,28.83
2023-03-12T23:01:24.149Z,38.85
2023-03-12T23:03:53.173Z,33.20
2023-03-12T23:06:24.234Z,25.83
2023-03-12T23:08:54.833Z,27.30
2023-03-12T23:11:25.488Z,26.38
2023-03-12T23:13:55.007Z,36.15
2023-03-12T23:16:27.262Z,33.25
2023-03-12T23:18:56.370Z,30.73
2023-03-12T23:21:25.831Z,29.30
2023-03-12T23:23:54.521Z,29.88
2023-03-12T23:26:26.792Z,37.25
2023-03-12T23:28:55.673Z,37.42
2023-03-12T23:31:27.675Z,30.02
2023-03-12T23:33:56.737Z,34.70
2023-03-12T23:36:25.989Z,35.10
2023-03-12T23:38:54.594Z,26.35
2023-03-12T23:41:24.593Z,27.77
2023-03-12T23:43:53.377Z,32.35
2023-03-12T23:46:21.783Z,31.90
2023-03-12T23:48:51.949Z,23.00
2023-03-12T23:51:22.442Z,39.40
2023-03-12T23:53:53.009Z,20.30
2023-03-12T23:56:23.376Z,28.50
2023-03-12T23:58:52.866Z,28.73
